Time;durP1;ratioP1;P1;durP2;ratioP2;P2;SDS_P1;SDS_P2;PMS_P1;PMS_P2;Temp;Humidity;BMP_temperature;BMP_pressure;BME280_temperature;BME280_humidity;BME280_pressure;Samples;Min_cycle;Max_cycle;Signal;HPM_P1;HPM_P2
2022/03/06 00:00:30;;;;;;;13.68;7.75;;;2.10;99.90;;;;;;5064480;28;20040;-84
2022/03/06 00:02:56;;;;;;;11.40;7.28;;;1.30;99.90;;;;;;5063795;28;20048;-84
2022/03/06 00:05:22;;;;;;;12.07;7.03;;;1.30;99.90;;;;;;5067807;28;20040;-84
2022/03/06 00:07:48;;;;;;;12.50;6.68;;;2.70;99.90;;;;;;5065502;28;20044;-84
2022/03/06 00:10:13;;;;;;;11.20;6.70;;;2.40;99.90;;;;;;5066438;28;20060;-84
2022/03/06 00:12:39;;;;;;;15.48;6.75;;;1.40;99.90;;;;;;5065812;28;20041;-84
2022/03/06 00:15:05;;;;;;;10.18;6.68;;;1.50;99.90;;;;;;5049469;28;20048;-84
2022/03/06 00:17:31;;;;;;;9.73;5.95;;;1.50;99.90;;;;;;5034381;28;20071;-84
2022/03/06 00:19:57;;;;;;;11.50;6.22;;;1.50;99.90;;;;;;5049164;28;20075;-83
2022/03/06 00:22:22;;;;;;;15.50;6.28;;;1.50;99.90;;;;;;5050082;28;20142;-84
2022/03/06 00:24:48;;;;;;;8.68;5.00;;;2.40;99.90;;;;;;5066211;28;20048;-84
2022/03/06 00:27:14;;;;;;;7.97;5.20;;;3.00;99.90;;;;;;5050663;28;20131;-84
2022/03/06 00:29:39;;;;;;;10.15;5.85;;;1.60;99.90;;;;;;5069463;28;20067;-84
2022/03/06 00:32:06;;;;;;;10.07;6.07;;;2.10;99.90;;;;;;5068495;28;20131;-84
2022/03/06 00:34:32;;;;;;;13.32;5.50;;;1.60;99.90;;;;;;5066191;28;20420;-85
2022/03/06 00:36:58;;;;;;;7.13;4.90;;;1.60;99.90;;;;;;5064560;28;20045;-85
2022/03/06 00:39:24;;;;;;;9.05;5.10;;;2.70;99.90;;;;;;5066101;28;20051;-85
2022/03/06 00:41:50;;;;;;;7.95;4.93;;;1.60;99.90;;;;;;5064748;28;20061;-85
2022/03/06 00:44:16;;;;;;;8.10;5.18;;;1.70;99.90;;;;;;5048881;28;20048;-85
2022/03/06 00:46:42;;;;;;;6.70;4.43;;;1.60;99.90;;;;;;5064717;28;20048;-85
2022/03/06 00:49:07;;;;;;;9.00;4.80;;;1.70;99.90;;;;;;5048965;28;20104;-85
2022/03/06 00:51:33;;;;;;;8.98;4.50;;;1.70;99.90;;;;;;5032280;28;20051;-85
2022/03/06 00:53:59;;;;;;;6.97;4.38;;;1.60;99.90;;;;;;5031511;28;20051;-85
2022/03/06 00:56:25;;;;;;;7.30;4.57;;;3.00;99.90;;;;;;5066319;28;20048;-85
2022/03/06 00:58:50;;;;;;;7.45;4.60;;;1.70;99.90;;;;;;5015114;28;20044;-85
2022/03/06 01:01:16;;;;;;;8.35;4.57;;;1.70;99.90;;;;;;5065539;28;20645;-85
2022/03/06 01:03:42;;;;;;;9.65;4.72;;;1.70;99.90;;;;;;5064486;28;20480;-85
2022/03/06 01:06:08;;;;;;;8.85;4.15;;;1.60;99.90;;;;;;5048353;28;20189;-85
2022/03/06 01:08:33;;;;;;;7.97;3.75;;;3.00;99.90;;;;;;5065522;28;20118;-84
2022/03/06 01:10:59;;;;;;;11.85;4.47;;;1.70;99.90;;;;;;5065968;28;20400;-85
2022/03/06 01:13:25;;;;;;;6.72;3.85;;;1.70;99.90;;;;;;5066120;28;20044;-84
2022/03/06 01:15:51;;;;;;;10.75;4.82;;;1.80;99.90;;;;;;5065058;28;20043;-84
2022/03/06 01:18:16;;;;;;;9.93;4.38;;;1.80;99.90;;;;;;5065066;28;20565;-84
2022/03/06 01:20:42;;;;;;;8.13;4.68;;;3.10;99.90;;;;;;5064333;28;20037;-85
2022/03/06 01:23:08;;;;;;;6.85;3.97;;;1.70;99.90;;;;;;5048494;28;20086;-84
2022/03/06 01:25:34;;;;;;;9.50;4.15;;;1.70;99.90;;;;;;5064898;28;20037;-84
2022/03/06 01:28:01;;;;;;;7.10;4.38;;;3.10;99.90;;;;;;5064383;28;20047;-84
2022/03/06 01:30:27;;;;;;;8.75;4.32;;;1.70;99.90;;;;;;5065220;28;20059;-83
2022/03/06 01:32:53;;;;;;;8.68;4.60;;;1.80;99.90;;;;;;5030471;28;20040;-85
2022/03/06 01:35:19;;;;;;;7.45;4.22;;;1.70;99.90;;;;;;5066370;28;20107;-84
2022/03/06 01:37:46;;;;;;;9.23;4.72;;;0.80;99.90;;;;;;5064570;28;20041;-84
2022/03/06 01:40:13;;;;;;;8.27;4.65;;;1.70;99.90;;;;;;5047889;28;20097;-84
2022/03/06 01:42:41;;;;;;;7.22;4.45;;;2.80;99.90;;;;;;5047686;28;20053;-84
2022/03/06 01:45:08;;;;;;;7.38;4.65;;;1.70;99.90;;;;;;5063591;28;20519;-85
2022/03/06 01:47:41;;;;;;;8.07;4.20;;;3.00;99.90;;;;;;5048260;28;20040;-84
2022/03/06 01:50:15;;;;;;;6.82;4.20;;;1.70;99.90;;;;;;5065203;28;20055;-84
2022/03/06 01:52:41;;;;;;;7.40;4.07;;;1.70;99.90;;;;;;5048074;28;20464;-84
2022/03/06 01:55:07;;;;;;;5.82;3.97;;;3.10;99.90;;;;;;5063407;28;20049;-84
2022/03/06 01:57:33;;;;;;;8.63;3.83;;;1.70;99.90;;;;;;5047549;28;20052;-84
2022/03/06 02:00:00;;;;;;;8.05;4.15;;;1.70;99.90;;;;;;5064598;28;20040;-84
2022/03/06 02:02:26;;;;;;;8.07;3.72;;;1.90;99.90;;;;;;5046964;28;20129;-84
2022/03/06 02:04:52;;;;;;;5.72;4.03;;;1.70;99.90;;;;;;5064599;28;20882;-84
2022/03/06 02:07:17;;;;;;;5.82;3.65;;;1.70;99.90;;;;;;5063398;28;20044;-84
2022/03/06 02:09:43;;;;;;;7.38;3.60;;;1.70;99.90;;;;;;5064317;28;20040;-84
2022/03/06 02:12:24;;;;;;;6.40;3.25;;;1.70;99.90;;;;;;5029860;28;20455;-84
2022/03/06 02:14:51;;;;;;;12.90;3.42;;;3.10;99.90;;;;;;5064937;28;20044;-84
2022/03/06 02:17:17;;;;;;;8.52;3.67;;;1.70;99.90;;;;;;5066027;28;20040;-84
2022/03/06 02:19:55;;;;;;;3.35;2.38;;;1.70;99.90;;;;;;5047215;28;20070;-84
2022/03/06 02:22:22;;;;;;;5.00;2.95;;;3.20;99.90;;;;;;5063707;28;20110;-84
2022/03/06 02:24:48;;;;;;;6.07;3.38;;;1.70;99.90;;;;;;5062644;28;20045;-84
2022/03/06 02:27:14;;;;;;;8.13;3.42;;;1.70;99.90;;;;;;5047653;28;20044;-84
2022/03/06 02:29:41;;;;;;;5.88;2.67;;;1.70;99.90;;;;;;5047608;28;20036;-84
2022/03/06 02:32:09;;;;;;;6.35;2.92;;;1.20;99.90;;;;;;5046288;28;20490;-83
2022/03/06 02:34:38;;;;;;;8.43;3.00;;;1.70;99.90;;;;;;5065686;28;20079;-84
2022/03/06 02:37:04;;;;;;;6.28;3.53;;;1.70;99.90;;;;;;5062896;28;20476;-83
2022/03/06 02:39:29;;;;;;;9.43;2.90;;;2.50;99.90;;;;;;5063940;28;20059;-83
2022/03/06 02:41:55;;;;;;;8.20;2.90;;;1.80;99.90;;;;;;5064038;28;20511;-84
2022/03/06 02:44:21;;;;;;;4.28;2.42;;;1.90;99.90;;;;;;5063055;28;20051;-84
2022/03/06 02:46:48;;;;;;;7.07;2.85;;;1.70;99.90;;;;;;5047222;28;20048;-85
2022/03/06 02:49:17;;;;;;;9.80;3.17;;;1.70;99.90;;;;;;5062879;28;20123;-85
2022/03/06 02:51:44;;;;;;;5.35;3.15;;;1.70;99.90;;;;;;5047111;28;20093;-85
2022/03/06 02:54:10;;;;;;;5.90;2.78;;;1.70;99.90;;;;;;5046524;28;20049;-84
2022/03/06 02:56:37;;;;;;;5.50;2.97;;;1.70;99.90;;;;;;5065632;28;20036;-85
2022/03/06 02:59:03;;;;;;;6.65;2.78;;;1.70;99.90;;;;;;5066700;28;20094;-84
2022/03/06 03:01:29;;;;;;;6.25;2.97;;;1.60;99.90;;;;;;5064221;28;20088;-84
2022/03/06 03:03:55;;;;;;;7.20;3.13;;;1.70;99.90;;;;;;5047067;28;20048;-85
2022/03/06 03:06:21;;;;;;;7.10;2.95;;;1.70;99.90;;;;;;5045677;28;20041;-85
2022/03/06 03:08:48;;;;;;;6.22;3.47;;;1.70;99.90;;;;;;5065517;28;20106;-85
2022/03/06 03:11:14;;;;;;;8.70;3.60;;;2.20;99.90;;;;;;5046232;28;20033;-85
2022/03/06 03:13:41;;;;;;;5.32;2.83;;;1.70;99.90;;;;;;5046424;28;20040;-85
2022/03/06 03:16:07;;;;;;;5.68;2.92;;;1.70;99.90;;;;;;5063724;28;20049;-85
2022/03/06 03:18:33;;;;;;;5.60;2.75;;;1.70;99.90;;;;;;5063348;28;20439;-84
2022/03/06 03:20:59;;;;;;;9.68;3.13;;;1.60;99.90;;;;;;5062877;28;20044;-85
2022/03/06 03:23:24;;;;;;;6.00;2.63;;;1.80;99.90;;;;;;5063813;28;20040;-85
2022/03/06 03:25:50;;;;;;;4.70;2.90;;;1.60;99.90;;;;;;5063933;28;20059;-85
2022/03/06 03:28:16;;;;;;;6.60;3.35;;;1.60;99.90;;;;;;5062075;28;20048;-85
2022/03/06 03:30:41;;;;;;;5.07;3.00;;;1.60;99.90;;;;;;5064190;28;20044;-85
2022/03/06 03:33:07;;;;;;;7.70;3.40;;;2.60;99.90;;;;;;5046285;28;20196;-85
2022/03/06 03:35:33;;;;;;;7.78;2.92;;;1.40;99.90;;;;;;5045940;28;20569;-85
2022/03/06 03:37:59;;;;;;;5.32;3.00;;;1.60;99.90;;;;;;5029057;28;20090;-85
2022/03/06 03:40:24;;;;;;;8.45;3.60;;;1.50;99.90;;;;;;5045384;28;20401;-85
2022/03/06 03:42:51;;;;;;;4.78;2.88;;;1.50;99.90;;;;;;5063545;28;20205;-85
2022/03/06 03:45:17;;;;;;;8.48;3.05;;;1.70;99.90;;;;;;5063198;28;20159;-85
2022/03/06 03:47:43;;;;;;;5.78;3.42;;;2.50;99.90;;;;;;5063078;28;20044;-85
2022/03/06 03:50:09;;;;;;;5.70;3.30;;;2.50;99.90;;;;;;5061503;28;20593;-84
2022/03/06 03:52:35;;;;;;;5.68;3.60;;;1.30;99.90;;;;;;5064297;28;20032;-85
2022/03/06 03:55:01;;;;;;;6.10;3.05;;;2.40;99.90;;;;;;5063706;28;20045;-85
2022/03/06 03:57:26;;;;;;;8.75;3.00;;;1.20;99.90;;;;;;5045561;28;20087;-85
2022/03/06 03:59:52;;;;;;;6.10;3.03;;;1.10;99.90;;;;;;5063263;28;20045;-85
2022/03/06 04:02:18;;;;;;;8.20;4.00;;;2.60;99.90;;;;;;5044624;28;20091;-85
2022/03/06 04:04:44;;;;;;;7.38;3.38;;;2.50;99.90;;;;;;5063061;28;20127;-85
2022/03/06 04:07:09;;;;;;;6.28;3.45;;;1.10;99.90;;;;;;5063071;28;20623;-85
2022/03/06 04:09:35;;;;;;;6.75;3.00;;;1.10;99.90;;;;;;5046044;28;20098;-85
2022/03/06 04:12:01;;;;;;;8.98;3.45;;;0.90;99.90;;;;;;5045647;28;20079;-85
2022/03/06 04:14:27;;;;;;;9.70;3.05;;;1.00;99.90;;;;;;5062276;28;20476;-85
2022/03/06 04:16:52;;;;;;;6.43;3.15;;;2.20;99.90;;;;;;5062819;28;20051;-84
2022/03/06 04:19:18;;;;;;;7.03;2.78;;;0.90;99.90;;;;;;5044643;28;20040;-85
2022/03/06 04:21:44;;;;;;;11.75;3.33;;;0.80;99.90;;;;;;5045951;28;20052;-85
2022/03/06 04:24:09;;;;;;;11.68;3.55;;;2.40;99.90;;;;;;5061749;28;20131;-85
2022/03/06 04:26:35;;;;;;;5.60;3.15;;;1.80;99.90;;;;;;5045381;28;20063;-85
2022/03/06 04:29:02;;;;;;;8.25;3.92;;;2.00;99.90;;;;;;5044897;28;20106;-85
2022/03/06 04:31:28;;;;;;;8.80;3.33;;;0.70;99.90;;;;;;5062267;28;20041;-83
2022/03/06 04:33:54;;;;;;;8.30;3.05;;;0.70;99.90;;;;;;5062490;28;20059;-85
2022/03/06 04:36:19;;;;;;;5.78;3.50;;;0.60;99.90;;;;;;5044516;28;20040;-83
2022/03/06 04:38:45;;;;;;;7.78;3.13;;;0.60;99.90;;;;;;5046108;28;20056;-83
2022/03/06 04:41:11;;;;;;;5.50;3.03;;;0.50;99.90;;;;;;5061294;28;20048;-84
2022/03/06 04:43:37;;;;;;;5.53;3.35;;;0.50;99.90;;;;;;5045204;28;20044;-84
2022/03/06 04:46:03;;;;;;;5.35;2.88;;;0.50;99.90;;;;;;5063014;28;20132;-84
2022/03/06 04:48:29;;;;;;;9.93;4.35;;;1.80;99.90;;;;;;5046741;28;20472;-85
2022/03/06 04:50:54;;;;;;;5.65;3.13;;;0.50;99.90;;;;;;5067154;28;20120;-84
2022/03/06 04:53:20;;;;;;;8.60;3.38;;;0.40;99.90;;;;;;5064739;28;20055;-84
2022/03/06 04:55:46;;;;;;;7.55;3.08;;;0.40;99.90;;;;;;5049677;28;20049;-84
2022/03/06 04:58:12;;;;;;;5.95;2.67;;;1.90;99.90;;;;;;5047839;28;20076;-84
2022/03/06 05:00:37;;;;;;;6.93;2.58;;;0.30;99.90;;;;;;5065416;28;20537;-84
2022/03/06 05:03:03;;;;;;;7.07;2.90;;;1.60;99.90;;;;;;5064775;28;20048;-84
2022/03/06 05:05:29;;;;;;;6.45;3.35;;;1.50;99.90;;;;;;5065601;28;20045;-84
2022/03/06 05:07:55;;;;;;;3.50;2.53;;;0.30;99.90;;;;;;5065145;28;20117;-84
2022/03/06 05:10:21;;;;;;;9.25;3.33;;;0.90;99.90;;;;;;5065000;28;20051;-84
2022/03/06 05:12:46;;;;;;;5.43;2.90;;;0.20;99.90;;;;;;5049495;28;20041;-85
2022/03/06 05:15:13;;;;;;;5.47;3.10;;;0.20;99.90;;;;;;5048117;28;20082;-85
2022/03/06 05:17:43;;;;;;;4.57;2.65;;;0.20;99.90;;;;;;5066098;28;20044;-85
2022/03/06 05:20:10;;;;;;;6.82;2.75;;;0.10;99.90;;;;;;5064739;28;20047;-85
2022/03/06 05:22:37;;;;;;;5.75;2.85;;;0.10;99.90;;;;;;5066234;28;20051;-86
2022/03/06 05:25:04;;;;;;;6.20;2.78;;;0.10;99.90;;;;;;5067396;28;20573;-85
2022/03/06 05:27:30;;;;;;;6.10;3.03;;;0.00;99.90;;;;;;5032920;28;20041;-86
2022/03/06 05:29:56;;;;;;;8.73;2.50;;;0.00;99.90;;;;;;5050082;28;20407;-85
2022/03/06 05:32:22;;;;;;;6.05;2.95;;;-0.60;99.90;;;;;;5047137;28;20470;-85
2022/03/06 05:34:47;;;;;;;4.85;2.53;;;0.70;99.90;;;;;;5047694;28;20055;-85
2022/03/06 05:37:13;;;;;;;5.47;2.50;;;-0.20;99.90;;;;;;5063981;28;20043;-85
2022/03/06 05:39:39;;;;;;;5.70;2.72;;;-0.20;99.90;;;;;;5064574;28;20380;-86
2022/03/06 05:42:05;;;;;;;4.40;2.67;;;-0.20;99.90;;;;;;5064250;28;20048;-85
2022/03/06 05:44:31;;;;;;;8.02;3.00;;;-0.20;99.90;;;;;;5030661;28;20055;-86
2022/03/06 05:46:56;;;;;;;9.35;3.53;;;0.60;99.90;;;;;;5065119;28;20641;-85
2022/03/06 05:49:22;;;;;;;5.90;2.47;;;0.00;99.90;;;;;;5047191;28;20640;-85
2022/03/06 05:51:48;;;;;;;9.75;3.08;;;-0.40;99.90;;;;;;5047840;28;20476;-85
2022/03/06 05:54:13;;;;;;;7.80;3.15;;;-0.40;99.90;;;;;;5064750;28;20089;-85
2022/03/06 05:56:39;;;;;;;7.45;2.45;;;-0.40;99.90;;;;;;5047493;28;20135;-85
2022/03/06 05:59:06;;;;;;;5.97;3.13;;;-0.40;99.90;;;;;;5064490;28;20048;-85
2022/03/06 06:01:32;;;;;;;4.63;2.67;;;-0.50;99.90;;;;;;5029331;28;20558;-85
2022/03/06 06:03:59;;;;;;;4.95;2.90;;;0.90;99.90;;;;;;5031779;28;20045;-85
2022/03/06 06:06:26;;;;;;;6.10;2.85;;;-0.50;99.90;;;;;;5062730;28;20153;-84
2022/03/06 06:08:52;;;;;;;6.05;3.50;;;0.80;99.90;;;;;;5065554;28;20068;-85
2022/03/06 06:11:18;;;;;;;4.85;2.50;;;-0.60;99.90;;;;;;5063076;28;20137;-85
2022/03/06 06:13:44;;;;;;;5.93;2.53;;;-0.50;99.90;;;;;;5063764;28;20119;-85
2022/03/06 06:16:10;;;;;;;6.90;2.38;;;-0.40;99.90;;;;;;5030481;28;20064;-83
2022/03/06 06:18:36;;;;;;;7.38;2.78;;;-0.50;99.90;;;;;;5063062;28;20044;-82
2022/03/06 06:21:02;;;;;;;4.88;2.45;;;-0.50;99.90;;;;;;5065980;28;20040;-81
2022/03/06 06:23:28;;;;;;;4.15;2.50;;;-0.50;99.90;;;;;;5064086;28;20472;-84
2022/03/06 06:25:54;;;;;;;7.22;2.78;;;-0.50;99.90;;;;;;5030756;28;20850;-82
2022/03/06 06:28:19;;;;;;;4.38;2.22;;;-0.50;99.90;;;;;;5064442;28;20128;-84
2022/03/06 06:30:45;;;;;;;3.67;1.95;;;-0.50;99.90;;;;;;5065516;28;20036;-83
2022/03/06 06:33:11;;;;;;;2.47;1.90;;;-0.30;99.90;;;;;;5065543;28;20041;-83
2022/03/06 06:35:37;;;;;;;2.70;1.85;;;-0.50;99.90;;;;;;5064662;28;20036;-84
2022/03/06 06:38:03;;;;;;;7.07;2.13;;;-0.50;99.90;;;;;;5031495;28;20118;-84
2022/03/06 06:40:29;;;;;;;3.28;1.88;;;-0.50;99.90;;;;;;5062542;28;20503;-84
2022/03/06 06:42:55;;;;;;;4.38;1.70;;;-0.50;99.90;;;;;;5065476;28;20032;-80
2022/03/06 06:45:21;;;;;;;5.53;2.22;;;-0.50;99.90;;;;;;5062959;28;20089;-83
2022/03/06 06:47:47;;;;;;;4.85;1.77;;;-0.30;99.90;;;;;;5063715;28;20076;-85
2022/03/06 06:50:13;;;;;;;3.67;2.00;;;-0.40;99.90;;;;;;5064946;28;20041;-82
2022/03/06 06:52:38;;;;;;;2.38;1.23;;;-0.40;99.90;;;;;;5065196;28;20036;-81
2022/03/06 06:55:06;;;;;;;3.63;1.50;;;-0.40;99.90;;;;;;5031948;28;20131;-81
2022/03/06 06:57:32;;;;;;;5.50;1.60;;;-0.40;99.90;;;;;;5046303;28;20040;-82
2022/03/06 06:59:58;;;;;;;5.05;1.58;;;-0.40;99.90;;;;;;5063770;28;20573;-82
2022/03/06 07:02:24;;;;;;;3.42;1.67;;;-0.30;99.90;;;;;;5063814;28;20502;-82
2022/03/06 07:04:51;;;;;;;3.72;1.40;;;-0.30;99.90;;;;;;5065399;28;20048;-81
2022/03/06 07:07:18;;;;;;;1.73;1.23;;;-0.20;99.90;;;;;;5046445;28;20044;-83
2022/03/06 07:09:44;;;;;;;4.63;1.40;;;0.10;99.90;;;;;;5046061;28;20044;-83
2022/03/06 07:12:11;;;;;;;3.55;1.45;;;1.20;99.90;;;;;;5065739;28;20076;-83
2022/03/06 07:14:37;;;;;;;3.90;1.30;;;0.10;99.90;;;;;;5063942;28;20408;-82
2022/03/06 07:17:03;;;;;;;1.80;1.45;;;0.20;99.90;;;;;;5064197;28;20392;-82
2022/03/06 07:19:29;;;;;;;5.72;1.30;;;0.30;99.90;;;;;;5063623;28;20522;-82
2022/03/06 07:21:55;;;;;;;3.17;1.30;;;0.30;99.90;;;;;;5014165;28;20040;-81
2022/03/06 07:24:21;;;;;;;1.92;1.08;;;0.40;99.90;;;;;;5064406;28;20040;-80
2022/03/06 07:26:46;;;;;;;6.13;1.45;;;0.50;99.90;;;;;;5063436;28;20110;-82
2022/03/06 07:29:12;;;;;;;3.22;1.15;;;0.50;99.90;;;;;;5030880;28;20040;-81
2022/03/06 07:31:38;;;;;;;2.22;1.35;;;0.60;99.90;;;;;;5062163;28;20055;-81
2022/03/06 07:34:04;;;;;;;2.00;1.08;;;0.70;99.90;;;;;;5064422;28;20091;-82
2022/03/06 07:36:29;;;;;;;3.22;1.08;;;0.90;99.90;;;;;;5062785;28;20045;-83
2022/03/06 07:38:55;;;;;;;4.88;1.10;;;1.00;99.90;;;;;;5047253;28;20053;-83
2022/03/06 07:41:21;;;;;;;3.45;1.40;;;1.20;99.90;;;;;;5046409;28;20411;-82
2022/03/06 07:43:47;;;;;;;3.72;1.30;;;1.30;99.90;;;;;;5064883;28;20416;-81
2022/03/06 07:46:13;;;;;;;4.45;1.30;;;1.40;99.90;;;;;;5047723;28;20067;-83
2022/03/06 07:48:38;;;;;;;3.47;1.40;;;1.50;99.90;;;;;;5064631;28;20045;-83
2022/03/06 07:51:05;;;;;;;5.78;1.30;;;1.30;99.90;;;;;;5047121;28;20233;-82
2022/03/06 07:53:30;;;;;;;4.40;1.33;;;1.80;99.90;;;;;;5064153;28;20241;-82
2022/03/06 07:55:56;;;;;;;2.35;1.05;;;1.90;99.90;;;;;;5064963;28;20127;-82
2022/03/06 07:58:22;;;;;;;3.90;1.35;;;3.30;99.90;;;;;;5047092;28;20044;-82
2022/03/06 08:00:48;;;;;;;4.35;1.25;;;2.10;99.90;;;;;;5063439;28;20514;-82
2022/03/06 08:03:13;;;;;;;2.13;1.23;;;2.20;99.90;;;;;;5047053;28;20051;-82
2022/03/06 08:05:39;;;;;;;3.80;1.20;;;2.60;99.90;;;;;;5062401;28;20510;-83
2022/03/06 08:08:05;;;;;;;1.73;0.95;;;2.50;99.90;;;;;;5064351;28;20416;-83
2022/03/06 08:10:31;;;;;;;2.75;1.20;;;2.60;99.90;;;;;;5062325;28;20381;-83
2022/03/06 08:12:56;;;;;;;2.85;1.27;;;2.70;99.90;;;;;;5046886;28;20492;-82
2022/03/06 08:15:22;;;;;;;2.10;0.93;;;2.80;99.90;;;;;;5045945;28;20044;-82
2022/03/06 08:17:48;;;;;;;3.45;1.00;;;3.00;99.90;;;;;;5046520;28;20475;-82
2022/03/06 08:20:14;;;;;;;3.03;1.30;;;3.20;99.90;;;;;;5063113;28;20052;-83
2022/03/06 08:22:40;;;;;;;2.67;1.30;;;4.50;99.90;;;;;;5045495;28;20074;-82
2022/03/06 08:25:07;;;;;;;3.97;1.23;;;3.70;99.90;;;;;;5018277;28;20248;-82
2022/03/06 08:27:34;;;;;;;3.58;0.95;;;3.90;99.90;;;;;;5049711;28;20055;-82
2022/03/06 08:30:01;;;;;;;3.47;0.90;;;4.00;99.90;;;;;;5068567;28;20496;-83
2022/03/06 08:32:27;;;;;;;4.85;1.30;;;4.20;99.90;;;;;;5067906;28;20045;-82
2022/03/06 08:34:53;;;;;;;3.95;1.15;;;4.30;99.90;;;;;;5068334;28;20174;-82
2022/03/06 08:37:19;;;;;;;3.42;1.42;;;4.20;99.90;;;;;;5068513;28;20036;-82
2022/03/06 08:39:49;;;;;;;4.85;1.55;;;4.40;99.90;;;;;;5065990;28;20355;-83
2022/03/06 08:42:16;;;;;;;2.42;1.10;;;4.40;99.90;;;;;;5067131;28;20450;-83
2022/03/06 08:44:42;;;;;;;1.63;0.80;;;4.40;99.90;;;;;;5065551;28;20049;-82
2022/03/06 08:47:09;;;;;;;1.98;1.10;;;4.50;99.90;;;;;;5068160;28;20086;-82
2022/03/06 08:49:35;;;;;;;2.45;0.88;;;4.60;99.90;;;;;;5067367;28;20449;-81
2022/03/06 08:52:02;;;;;;;1.58;0.80;;;4.70;99.90;;;;;;5066692;28;20051;-82
2022/03/06 08:54:27;;;;;;;3.75;1.40;;;4.80;99.90;;;;;;5066489;28;20487;-82
2022/03/06 08:56:53;;;;;;;4.97;1.60;;;4.90;99.90;;;;;;5065637;28;20055;-81
2022/03/06 08:59:22;;;;;;;2.88;1.10;;;5.00;99.90;;;;;;5066885;28;20109;-82
2022/03/06 09:01:48;;;;;;;3.95;0.93;;;5.10;99.90;;;;;;5065288;28;20148;-80
2022/03/06 09:04:14;;;;;;;2.40;1.00;;;5.30;99.90;;;;;;5066769;28;20524;-80
2022/03/06 09:06:41;;;;;;;2.95;1.20;;;6.00;99.90;;;;;;5049210;28;20045;-81
2022/03/06 09:09:07;;;;;;;4.68;1.20;;;5.20;99.90;;;;;;5050101;28;20048;-81
2022/03/06 09:11:34;;;;;;;3.53;1.23;;;6.00;99.90;;;;;;5033748;28;20438;-82
2022/03/06 09:13:59;;;;;;;2.70;1.02;;;5.30;99.90;;;;;;5049646;28;20045;-82
2022/03/06 09:16:26;;;;;;;2.55;0.80;;;5.30;99.60;;;;;;5050226;28;20446;-81
2022/03/06 09:18:51;;;;;;;7.60;1.27;;;5.40;99.90;;;;;;5032093;28;20349;-82
2022/03/06 09:21:17;;;;;;;2.40;1.13;;;5.40;99.60;;;;;;5066257;28;20057;-82
2022/03/06 09:23:43;;;;;;;2.85;1.02;;;5.50;99.00;;;;;;5066847;28;20116;-81
2022/03/06 09:26:09;;;;;;;1.73;0.88;;;5.50;99.20;;;;;;5066011;28;20076;-81
2022/03/06 09:28:35;;;;;;;2.13;0.73;;;5.60;98.60;;;;;;5065924;28;20076;-81
2022/03/06 09:31:01;;;;;;;5.25;1.23;;;5.60;98.00;;;;;;5031960;28;20083;-82
2022/03/06 09:33:27;;;;;;;4.63;1.30;;;5.60;98.80;;;;;;5050268;28;20168;-81
2022/03/06 09:35:53;;;;;;;3.50;1.02;;;6.90;97.50;;;;;;5064924;28;20076;-81
2022/03/06 09:38:19;;;;;;;6.03;1.20;;;5.70;97.00;;;;;;5067022;28;20043;-81
2022/03/06 09:40:45;;;;;;;2.00;1.05;;;5.80;97.40;;;;;;5031974;28;20472;-81
2022/03/06 09:43:16;;;;;;;1.67;0.95;;;5.90;97.30;;;;;;5067432;28;20445;-81
2022/03/06 09:45:44;;;;;;;4.40;1.70;;;6.00;93.30;;;;;;5065806;28;20044;-81
2022/03/06 09:48:11;;;;;;;3.35;1.45;;;7.30;94.20;;;;;;5066466;28;20049;-82
2022/03/06 09:50:37;;;;;;;4.55;1.23;;;6.20;94.40;;;;;;5066089;28;20523;-81
2022/03/06 09:53:04;;;;;;;2.72;1.20;;;6.30;93.70;;;;;;5031329;28;20048;-80
2022/03/06 09:55:30;;;;;;;5.60;1.15;;;6.50;93.60;;;;;;5016632;28;20044;-80
2022/03/06 09:57:57;;;;;;;2.92;1.30;;;6.50;91.10;;;;;;5048236;28;20051;-81
2022/03/06 10:00:24;;;;;;;2.78;1.10;;;7.70;91.60;;;;;;5048836;28;20040;-81
2022/03/06 10:02:58;;;;;;;2.60;1.13;;;6.30;92.00;;;;;;5067108;28;20404;-81
2022/03/06 10:05:33;;;;;;;2.78;1.35;;;7.10;87.50;;;;;;5066281;28;20049;-82
2022/03/06 10:08:19;;;;;;;6.53;1.30;;;6.00;87.90;;;;;;5067189;28;20048;-81
2022/03/06 10:10:47;;;;;;;2.80;1.15;;;5.90;85.00;;;;;;5065538;28;20052;-81
2022/03/06 10:13:23;;;;;;;7.38;1.15;;;5.70;90.00;;;;;;5067575;28;20391;-81
2022/03/06 10:16:00;;;;;;;4.93;1.35;;;5.90;89.70;;;;;;5067882;28;20552;-81
2022/03/06 10:18:29;;;;;;;3.10;1.02;;;6.00;91.20;;;;;;5065041;28;20053;-81
2022/03/06 10:21:20;;;;;;;1.20;0.80;;;6.20;90.70;;;;;;5050101;28;20093;-81
2022/03/06 10:24:06;;;;;;;2.00;1.10;;;6.50;90.30;;;;;;5065301;28;20044;-81
2022/03/06 10:26:34;;;;;;;1.55;0.82;;;6.70;89.60;;;;;;5066442;28;20037;-81
2022/03/06 10:29:03;;;;;;;3.45;1.35;;;6.70;84.80;;;;;;5065390;28;20076;-81
2022/03/06 10:31:34;;;;;;;1.45;1.02;;;6.70;86.10;;;;;;5064105;28;20087;-81
2022/03/06 10:34:09;;;;;;;3.17;1.33;;;6.80;87.40;;;;;;5066214;28;20507;-81
2022/03/06 10:36:39;;;;;;;2.83;0.90;;;6.90;81.80;;;;;;5048040;28;20051;-81
2022/03/06 10:39:30;;;;;;;1.92;0.90;;;6.90;85.90;;;;;;5047860;28;20041;-81
2022/03/06 10:41:56;;;;;;;3.75;1.20;;;7.30;85.00;;;;;;5063088;28;20048;-82
2022/03/06 10:44:42;;;;;;;3.67;1.30;;;7.00;82.70;;;;;;5030548;28;20047;-81
2022/03/06 10:47:08;;;;;;;2.90;1.30;;;7.10;81.70;;;;;;5048108;28;20040;-81
2022/03/06 10:49:34;;;;;;;7.97;1.20;;;8.20;83.10;;;;;;5065432;28;20041;-81
2022/03/06 10:52:20;;;;;;;3.88;1.30;;;7.20;81.30;;;;;;5064074;28;20051;-80
2022/03/06 10:54:51;;;;;;;3.47;1.38;;;7.30;76.80;;;;;;5064627;28;20045;-81
2022/03/06 10:57:17;;;;;;;3.08;1.05;;;7.30;82.10;;;;;;5063170;28;20109;-81
2022/03/06 10:59:43;;;;;;;3.88;1.20;;;7.40;82.90;;;;;;5048151;28;20036;-81
2022/03/06 11:02:11;;;;;;;1.63;0.90;;;7.40;82.00;;;;;;5063507;28;20044;-80
2022/03/06 11:04:37;;;;;;;2.17;0.93;;;7.50;81.40;;;;;;5064370;28;20075;-80
2022/03/06 11:07:04;;;;;;;2.17;1.25;;;7.50;80.90;;;;;;5047826;28;20043;-80
2022/03/06 11:09:30;;;;;;;2.67;1.30;;;7.60;80.60;;;;;;5030502;28;20051;-80
2022/03/06 11:11:56;;;;;;;4.00;1.30;;;7.70;80.20;;;;;;5065924;28;20397;-80
2022/03/06 11:14:22;;;;;;;5.22;1.50;;;8.20;77.80;;;;;;5064279;28;20052;-80
2022/03/06 11:16:48;;;;;;;2.50;1.38;;;7.80;79.30;;;;;;5065677;28;20513;-81
2022/03/06 11:19:14;;;;;;;5.20;1.63;;;8.00;76.10;;;;;;5064752;28;20045;-81
2022/03/06 11:21:43;;;;;;;4.18;1.45;;;8.00;75.30;;;;;;5063553;28;20043;-80
2022/03/06 11:24:22;;;;;;;3.83;1.00;;;8.10;75.40;;;;;;5047543;28;20094;-81
2022/03/06 11:27:12;;;;;;;2.92;1.42;;;8.00;72.70;;;;;;5045968;28;20403;-81
2022/03/06 11:29:38;;;;;;;2.13;1.13;;;8.40;73.90;;;;;;5063937;28;20515;-81
2022/03/06 11:32:08;;;;;;;3.33;1.45;;;8.10;77.00;;;;;;5062903;28;20049;-80
2022/03/06 11:34:40;;;;;;;3.53;1.20;;;8.20;74.70;;;;;;5063315;28;20118;-81
2022/03/06 11:37:15;;;;;;;2.80;1.15;;;8.30;73.80;;;;;;5064192;28;20056;-81
2022/03/06 11:39:42;;;;;;;7.13;1.40;;;8.60;74.70;;;;;;5045597;28;20571;-81
2022/03/06 11:42:09;;;;;;;3.75;1.25;;;8.50;74.50;;;;;;5063873;28;20423;-81
2022/03/06 11:44:41;;;;;;;5.28;1.50;;;8.10;73.10;;;;;;5046649;28;20040;-80
2022/03/06 11:47:23;;;;;;;4.18;1.27;;;8.00;74.00;;;;;;5063775;28;20044;-80
2022/03/06 11:49:59;;;;;;;4.25;1.38;;;8.00;72.70;;;;;;5047540;28;20084;-80
2022/03/06 11:52:36;;;;;;;2.65;1.50;;;8.00;75.70;;;;;;5046190;28;20048;-80
2022/03/06 11:55:29;;;;;;;4.38;1.17;;;8.10;74.50;;;;;;5063538;28;20147;-81
2022/03/06 11:57:54;;;;;;;4.60;1.50;;;8.20;74.10;;;;;;5063831;28;20786;-81
2022/03/06 12:00:24;;;;;;;3.45;0.75;;;8.20;74.40;;;;;;5050929;28;20314;-80
2022/03/06 12:02:59;;;;;;;4.80;1.58;;;8.10;74.20;;;;;;5068009;28;20048;-80
2022/03/06 12:05:45;;;;;;;2.80;1.27;;;7.90;73.20;;;;;;5066566;28;20427;-81
2022/03/06 12:08:12;;;;;;;1.33;0.90;;;7.60;72.30;;;;;;5068029;28;20334;-81
2022/03/06 12:10:40;;;;;;;3.35;1.23;;;8.60;75.90;;;;;;5050317;28;20047;-81
2022/03/06 12:13:23;;;;;;;5.22;1.63;;;7.50;76.30;;;;;;5067178;28;20051;-81
2022/03/06 12:16:05;;;;;;;3.90;1.17;;;7.60;75.80;;;;;;5051714;28;20973;-81
2022/03/06 12:18:32;;;;;;;2.78;1.17;;;7.60;75.00;;;;;;5066183;28;20055;-81
2022/03/06 12:20:58;;;;;;;3.30;1.52;;;7.60;75.90;;;;;;5067477;28;20080;-81
2022/03/06 12:23:29;;;;;;;2.67;1.25;;;7.60;76.00;;;;;;5049924;28;20098;-81
2022/03/06 12:25:57;;;;;;;4.57;1.23;;;7.60;76.60;;;;;;5066893;28;20041;-81
2022/03/06 12:28:31;;;;;;;5.25;1.10;;;8.50;77.60;;;;;;5050805;28;20476;-81
2022/03/06 12:30:57;;;;;;;2.15;1.00;;;7.70;75.90;;;;;;5066151;28;20070;-81
2022/03/06 12:33:35;;;;;;;3.22;1.38;;;8.00;76.30;;;;;;5050959;28;20480;-82
2022/03/06 12:36:10;;;;;;;4.65;1.10;;;7.70;75.20;;;;;;5066437;28;20139;-81
2022/03/06 12:38:36;;;;;;;4.25;1.10;;;8.20;75.90;;;;;;5067129;28;20083;-81
2022/03/06 12:41:03;;;;;;;4.03;1.40;;;7.70;76.90;;;;;;5034733;28;20041;-81
2022/03/06 12:43:31;;;;;;;4.30;0.80;;;7.80;77.00;;;;;;5066991;28;20446;-81
2022/03/06 12:45:58;;;;;;;3.40;1.00;;;8.10;76.40;;;;;;5067969;28;20045;-81
2022/03/06 12:48:24;;;;;;;1.83;1.13;;;7.90;75.80;;;;;;5051207;28;20076;-81
2022/03/06 12:50:50;;;;;;;5.90;1.10;;;8.00;77.10;;;;;;5038498;28;20041;-81
2022/03/06 12:53:17;;;;;;;4.50;1.57;;;8.10;77.80;;;;;;5052849;28;20063;-81
2022/03/06 12:55:43;;;;;;;4.25;1.10;;;9.40;77.80;;;;;;5067921;28;20302;-82